createdAt,value
2018-09-15T00:00:05.573Z,82.97
2018-09-15T00:03:10.022Z,84.16
2018-09-15T00:06:14.437Z,83.81
2018-09-15T00:09:19.007Z,83.50
2018-09-15T00:12:23.608Z,82.65
2018-09-15T00:15:28.040Z,83.04
2018-09-15T00:18:32.542Z,82.58
2018-09-15T00:21:36.951Z,83.11
2018-09-15T00:24:41.472Z,81.87
2018-09-15T00:27:46.041Z,82.73
2018-09-15T00:30:50.531Z,81.48
2018-09-15T00:33:54.988Z,81.67
2018-09-15T00:36:59.425Z,80.20
2018-09-15T00:40:03.923Z,80.43
2018-09-15T00:43:08.484Z,80.87
2018-09-15T00:46:13.034Z,80.86
2018-09-15T00:49:17.414Z,81.90
2018-09-15T00:52:22.202Z,82.82
2018-09-15T00:55:26.652Z,81.65
2018-09-15T00:58:31.073Z,82.32
2018-09-15T01:01:35.652Z,83.21
2018-09-15T01:04:40.155Z,84.36
2018-09-15T01:07:44.673Z,84.27
2018-09-15T01:10:49.155Z,85.56
2018-09-15T01:13:54.355Z,86.19
2018-09-15T01:16:58.903Z,86.41
2018-09-15T01:20:03.448Z,87.35
2018-09-15T01:23:07.977Z,87.42
2018-09-15T01:26:12.407Z,86.29
2018-09-15T01:29:16.802Z,85.32
2018-09-15T01:32:21.498Z,85.65
2018-09-15T01:35:26.942Z,85.25
2018-09-15T01:38:31.508Z,85.41
2018-09-15T01:41:36.294Z,84.92
2018-09-15T01:44:41.027Z,84.87
2018-09-15T01:47:45.559Z,85.93
2018-09-15T01:50:49.973Z,86.56
2018-09-15T01:53:54.552Z,87.02
2018-09-15T01:56:58.963Z,85.46
2018-09-15T02:00:05.218Z,85.08
2018-09-15T02:03:09.690Z,85.42
2018-09-15T02:06:14.107Z,85.64
2018-09-15T02:09:18.663Z,84.36
2018-09-15T02:12:23.169Z,84.62
2018-09-15T02:15:27.658Z,84.66
2018-09-15T02:18:32.175Z,84.82
2018-09-15T02:21:37.017Z,85.48
2018-09-15T02:24:41.607Z,85.81
2018-09-15T02:27:46.064Z,86.97
2018-09-15T02:30:50.598Z,87.15
2018-09-15T02:33:55.116Z,87.40
2018-09-15T02:36:59.598Z,87.65
2018-09-15T02:40:04.117Z,87.83
2018-09-15T02:43:08.595Z,87.81
2018-09-15T02:46:13.284Z,88.08
2018-09-15T02:49:17.719Z,87.51
2018-09-15T02:52:22.203Z,87.37
2018-09-15T02:55:26.598Z,86.89
2018-09-15T02:58:31.093Z,87.17
2018-09-15T03:01:35.604Z,87.77
2018-09-15T03:04:40.100Z,88.03
2018-09-15T03:07:44.573Z,87.48
2018-09-15T03:10:49.127Z,88.01
2018-09-15T03:13:53.548Z,87.18
2018-09-15T03:16:58.053Z,86.47
2018-09-15T03:20:02.501Z,86.59
2018-09-15T03:23:07.119Z,85.48
2018-09-15T03:26:11.687Z,85.50
2018-09-15T03:29:16.091Z,85.82
2018-09-15T03:32:20.647Z,85.81
2018-09-15T03:35:25.095Z,85.98
2018-09-15T03:38:29.829Z,86.40
2018-09-15T03:41:34.383Z,86.42
2018-09-15T03:44:38.821Z,86.20
2018-09-15T03:47:44.217Z,86.70
2018-09-15T03:50:48.821Z,86.49
2018-09-15T03:53:53.315Z,86.71
2018-09-15T03:56:57.754Z,86.46
2018-09-15T04:00:02.345Z,86.14
2018-09-15T04:03:06.878Z,86.56
2018-09-15T04:06:12.582Z,86.74
2018-09-15T04:09:17.034Z,86.76
2018-09-15T04:12:21.575Z,86.84
2018-09-15T04:15:25.983Z,87.92
2018-09-15T04:18:30.541Z,87.95
2018-09-15T04:21:35.112Z,87.97
2018-09-15T04:24:39.585Z,87.86
2018-09-15T04:27:44.005Z,87.90
2018-09-15T04:30:48.544Z,88.60
2018-09-15T04:33:53.456Z,88.33
2018-09-15T04:36:57.921Z,88.83
2018-09-15T04:40:02.334Z,89.00
2018-09-15T04:43:06.807Z,89.62
2018-09-15T04:46:11.209Z,89.45
2018-09-15T04:49:15.626Z,89.37
2018-09-15T04:52:20.143Z,88.87
2018-09-15T04:55:24.568Z,89.20
2018-09-15T04:58:29.061Z,89.57
2018-09-15T05:01:33.568Z,90.14
2018-09-15T05:04:38.098Z,89.93
2018-09-15T05:07:42.658Z,89.98
2018-09-15T05:10:47.233Z,89.16
2018-09-15T05:13:51.883Z,88.24
2018-09-15T05:16:56.487Z,87.08
2018-09-15T05:20:00.885Z,87.27
2018-09-15T05:23:05.576Z,86.69
2018-09-15T05:26:10.042Z,87.01
2018-09-15T05:29:14.506Z,86.57
2018-09-15T05:32:18.991Z,85.33
2018-09-15T05:35:23.407Z,82.41
2018-09-15T05:38:27.935Z,80.65
2018-09-15T05:41:32.423Z,78.93
2018-09-15T05:44:36.840Z,78.66
2018-09-15T05:47:41.365Z,78.54
2018-09-15T05:50:45.830Z,78.80
2018-09-15T05:53:50.411Z,79.09
2018-09-15T05:56:54.903Z,79.24
2018-09-15T05:59:59.911Z,79.12
2018-09-15T06:03:04.437Z,79.33
2018-09-15T06:06:08.855Z,79.58
2018-09-15T06:09:13.294Z,80.21
2018-09-15T06:12:17.753Z,80.17
2018-09-15T06:15:22.165Z,79.48
2018-09-15T06:18:26.595Z,79.17
2018-09-15T06:21:31.032Z,78.35
2018-09-15T06:24:35.474Z,76.32
2018-09-15T06:27:40.031Z,77.93
2018-09-15T06:30:44.446Z,76.56
2018-09-15T06:33:48.962Z,74.02
2018-09-15T06:36:53.434Z,72.58
2018-09-15T06:39:57.856Z,73.87
2018-09-15T06:43:02.536Z,70.27
2018-09-15T06:46:07.164Z,69.41
2018-09-15T06:49:11.725Z,68.14
2018-09-15T06:52:16.177Z,67.77
2018-09-15T06:55:20.747Z,67.27
2018-09-15T06:58:25.352Z,67.61
2018-09-15T07:01:30.419Z,66.04
2018-09-15T07:04:34.799Z,67.45
2018-09-15T07:07:39.263Z,66.19
2018-09-15T07:10:43.668Z,65.37
2018-09-15T07:13:48.251Z,65.29
2018-09-15T07:16:52.736Z,64.16
2018-09-15T07:19:57.246Z,64.20
2018-09-15T07:23:01.686Z,62.37
2018-09-15T07:26:06.381Z,59.37
2018-09-15T07:29:10.754Z,58.70
2018-09-15T07:32:15.244Z,57.91
2018-09-15T07:35:19.811Z,57.28
2018-09-15T07:38:24.276Z,58.03
2018-09-15T07:41:28.741Z,57.63
2018-09-15T07:44:33.263Z,55.36
2018-09-15T07:47:37.782Z,56.98
2018-09-15T07:50:42.403Z,54.52
2018-09-15T07:53:46.990Z,53.94
2018-09-15T07:56:51.422Z,52.59
2018-09-15T07:59:55.997Z,52.29
2018-09-15T08:03:00.436Z,51.78
2018-09-15T08:06:05.103Z,51.84
2018-09-15T08:09:09.691Z,50.63
2018-09-15T08:12:14.627Z,51.51
2018-09-15T08:15:19.259Z,50.42
2018-09-15T08:18:23.795Z,50.10
2018-09-15T08:21:28.219Z,50.34
2018-09-15T08:24:32.965Z,49.58
2018-09-15T08:27:37.500Z,48.83
2018-09-15T08:30:42.031Z,48.75
2018-09-15T08:33:46.481Z,48.34
2018-09-15T08:36:51.009Z,46.77
2018-09-15T08:39:56.095Z,48.03
2018-09-15T08:43:00.687Z,46.88
2018-09-15T08:46:05.439Z,46.67
2018-09-15T08:49:10.044Z,46.38
2018-09-15T08:52:14.713Z,46.60
2018-09-15T08:55:19.141Z,46.91
2018-09-15T08:58:23.577Z,45.43
2018-09-15T09:01:28.083Z,46.34
2018-09-15T09:04:32.526Z,46.33
2018-09-15T09:07:37.229Z,45.29
2018-09-15T09:10:41.682Z,45.38
2018-09-15T09:13:46.343Z,45.89
2018-09-15T09:16:50.809Z,46.46
2018-09-15T09:19:55.477Z,44.73
2018-09-15T09:22:59.916Z,45.42
2018-09-15T09:26:04.488Z,46.48
2018-09-15T09:29:08.831Z,45.77
2018-09-15T09:32:13.289Z,45.69
2018-09-15T09:35:17.829Z,45.54
2018-09-15T09:38:22.294Z,45.86
2018-09-15T09:41:26.985Z,45.45
2018-09-15T09:44:31.481Z,44.88
2018-09-15T09:47:36.160Z,42.61
2018-09-15T09:50:40.635Z,45.04
2018-09-15T09:53:45.162Z,44.71
2018-09-15T09:56:49.612Z,44.50
2018-09-15T09:59:54.460Z,43.89
2018-09-15T10:02:58.938Z,42.10
2018-09-15T10:06:03.720Z,42.82
2018-09-15T10:09:10.630Z,41.68
2018-09-15T10:12:15.190Z,40.70
2018-09-15T10:15:19.641Z,40.59
2018-09-15T10:18:24.129Z,41.05
2018-09-15T10:21:28.681Z,42.83
2018-09-15T10:24:33.190Z,40.91
2018-09-15T10:27:37.711Z,38.55
2018-09-15T10:30:42.217Z,39.81
2018-09-15T10:33:46.696Z,40.26
2018-09-15T10:36:51.193Z,40.95
2018-09-15T10:39:55.654Z,42.25
2018-09-15T10:43:00.191Z,42.25
2018-09-15T10:46:04.662Z,42.59
2018-09-15T10:49:09.083Z,43.23
2018-09-15T10:52:13.584Z,40.33
2018-09-15T10:55:17.994Z,42.04
2018-09-15T10:58:22.704Z,42.05
2018-09-15T11:01:27.344Z,43.10
2018-09-15T11:04:31.760Z,41.83
2018-09-15T11:07:36.230Z,42.01
2018-09-15T11:10:40.713Z,42.78
2018-09-15T11:13:45.213Z,43.71
2018-09-15T11:16:49.657Z,43.37
2018-09-15T11:19:54.072Z,44.06
2018-09-15T11:22:58.600Z,44.15
2018-09-15T11:26:03.131Z,43.68
2018-09-15T11:29:08.029Z,42.57
2018-09-15T11:32:12.381Z,41.94
2018-09-15T11:35:16.975Z,41.75
2018-09-15T11:38:21.446Z,40.51
2018-09-15T11:41:26.163Z,39.50
2018-09-15T11:44:30.752Z,39.30
2018-09-15T11:47:35.321Z,40.18
2018-09-15T11:50:39.823Z,39.45
2018-09-15T11:53:44.291Z,40.15
2018-09-15T11:56:48.783Z,38.21
2018-09-15T11:59:53.441Z,39.25
2018-09-15T12:02:57.863Z,39.25
2018-09-15T12:06:02.535Z,39.72
2018-09-15T12:09:09.176Z,39.83
2018-09-15T12:12:13.607Z,41.10
2018-09-15T12:15:18.425Z,40.43
2018-09-15T12:18:22.880Z,40.02
2018-09-15T12:21:27.458Z,39.94
2018-09-15T12:24:31.861Z,38.53
2018-09-15T12:27:36.384Z,39.80
2018-09-15T12:30:40.841Z,37.62
2018-09-15T12:33:45.321Z,37.52
2018-09-15T12:36:50.022Z,37.28
2018-09-15T12:39:54.450Z,36.26
2018-09-15T12:42:58.951Z,35.38
2018-09-15T12:46:03.508Z,36.77
2018-09-15T12:49:07.941Z,37.27
2018-09-15T12:52:12.460Z,37.96
2018-09-15T12:55:17.100Z,38.56
2018-09-15T12:58:21.590Z,38.32
2018-09-15T13:01:26.231Z,36.68
2018-09-15T13:04:30.770Z,37.56
2018-09-15T13:07:35.243Z,37.43
2018-09-15T13:10:39.730Z,35.86
2018-09-15T13:13:44.154Z,34.67
2018-09-15T13:16:48.794Z,34.96
2018-09-15T13:19:53.279Z,36.27
2018-09-15T13:22:57.774Z,37.19
2018-09-15T13:26:02.230Z,38.05
2018-09-15T13:29:06.803Z,37.67
2018-09-15T13:32:11.300Z,37.79
2018-09-15T13:35:15.766Z,37.37
2018-09-15T13:38:20.232Z,37.49
2018-09-15T13:41:24.732Z,37.94
2018-09-15T13:44:29.322Z,36.84
2018-09-15T13:47:33.805Z,36.77
2018-09-15T13:50:38.355Z,37.04
2018-09-15T13:53:42.928Z,36.90
2018-09-15T13:56:47.419Z,37.06
2018-09-15T13:59:51.870Z,37.96
2018-09-15T14:02:56.448Z,35.44
2018-09-15T14:06:01.047Z,36.90
2018-09-15T14:09:07.994Z,35.93
2018-09-15T14:12:12.624Z,36.62
2018-09-15T14:15:26.866Z,36.68
2018-09-15T14:18:34.481Z,36.33
2018-09-15T14:21:40.380Z,37.06
2018-09-15T14:24:44.826Z,37.62
2018-09-15T14:27:49.417Z,35.89
2018-09-15T14:30:53.890Z,37.23
2018-09-15T14:33:58.326Z,35.87
2018-09-15T14:37:02.776Z,36.79
2018-09-15T14:40:07.360Z,36.67
2018-09-15T14:43:11.874Z,36.41
2018-09-15T14:46:16.306Z,36.67
2018-09-15T14:49:20.868Z,37.03
2018-09-15T14:52:25.629Z,35.75
2018-09-15T14:55:30.106Z,35.13
2018-09-15T14:58:34.732Z,35.23
2018-09-15T15:01:39.646Z,35.86
2018-09-15T15:04:44.868Z,35.75
2018-09-15T15:07:50.129Z,36.54
2018-09-15T15:10:54.614Z,36.50
2018-09-15T15:13:59.422Z,35.88
2018-09-15T15:17:03.864Z,35.93
2018-09-15T15:20:08.459Z,35.91
2018-09-15T15:23:12.971Z,36.82
2018-09-15T15:26:17.660Z,36.85
2018-09-15T15:29:23.014Z,37.20
2018-09-15T15:32:27.779Z,36.74
2018-09-15T15:35:32.744Z,37.78
2018-09-15T15:38:37.136Z,37.50
2018-09-15T15:41:41.594Z,38.12
2018-09-15T15:44:46.379Z,38.28
2018-09-15T15:47:50.868Z,37.45
2018-09-15T15:50:55.392Z,38.34
2018-09-15T15:53:59.914Z,38.45
2018-09-15T15:57:04.447Z,38.54
2018-09-15T16:00:09.026Z,38.40
2018-09-15T16:03:13.547Z,38.09
2018-09-15T16:06:18.680Z,38.45
2018-09-15T16:09:23.102Z,38.66
2018-09-15T16:12:27.545Z,38.94
2018-09-15T16:15:32.265Z,39.01
2018-09-15T16:18:36.724Z,39.12
2018-09-15T16:21:41.182Z,38.83
2018-09-15T16:24:45.719Z,38.88
2018-09-15T16:27:50.572Z,39.69
2018-09-15T16:30:55.185Z,39.15
2018-09-15T16:33:59.691Z,39.92
2018-09-15T16:37:04.154Z,40.67
2018-09-15T16:40:08.696Z,41.36
2018-09-15T16:43:13.182Z,41.05
2018-09-15T16:46:17.723Z,42.68
2018-09-15T16:49:22.242Z,43.63
2018-09-15T16:52:26.580Z,45.13
2018-09-15T16:55:31.046Z,45.97
2018-09-15T16:58:35.587Z,46.65
2018-09-15T17:01:40.190Z,46.56
2018-09-15T17:05:05.132Z,46.77
2018-09-15T17:08:09.650Z,46.87
2018-09-15T17:11:14.186Z,47.60
2018-09-15T17:14:32.192Z,47.63
2018-09-15T17:17:36.682Z,47.97
2018-09-15T17:20:41.235Z,48.24
2018-09-15T17:23:45.641Z,49.65
2018-09-15T17:26:50.276Z,51.15
2018-09-15T17:29:54.742Z,51.69
2018-09-15T17:32:59.186Z,51.47
2018-09-15T17:36:03.856Z,52.96
2018-09-15T17:39:11.306Z,53.13
2018-09-15T17:42:15.856Z,54.42
2018-09-15T17:45:20.477Z,55.23
2018-09-15T17:48:24.827Z,55.79
2018-09-15T17:51:29.305Z,56.55
2018-09-15T17:54:33.816Z,57.28
2018-09-15T17:57:38.346Z,57.92
2018-09-15T18:00:42.855Z,57.19
2018-09-15T18:03:47.409Z,58.56
2018-09-15T18:06:51.929Z,58.71
2018-09-15T18:09:56.432Z,60.15
2018-09-15T18:13:00.945Z,60.40
2018-09-15T18:16:05.492Z,60.90
2018-09-15T18:19:10.002Z,61.29
2018-09-15T18:22:15.691Z,61.26
2018-09-15T18:25:20.156Z,62.01
2018-09-15T18:28:24.678Z,60.95
2018-09-15T18:31:29.238Z,62.58
2018-09-15T18:34:33.735Z,62.93
2018-09-15T18:37:38.287Z,62.33
2018-09-15T18:40:42.794Z,62.50
2018-09-15T18:43:47.636Z,63.24
2018-09-15T18:46:52.215Z,63.99
2018-09-15T18:49:56.694Z,62.84
2018-09-15T18:53:01.272Z,64.25
2018-09-15T18:56:05.881Z,64.33
2018-09-15T18:59:10.440Z,64.52
2018-09-15T19:02:17.998Z,64.69
2018-09-15T19:05:22.680Z,64.83
2018-09-15T19:08:27.115Z,65.43
2018-09-15T19:11:31.606Z,65.95
2018-09-15T19:14:36.156Z,66.90
2018-09-15T19:17:40.627Z,67.14
2018-09-15T19:20:45.178Z,67.54
2018-09-15T19:23:49.679Z,68.40
2018-09-15T19:26:54.307Z,67.87
2018-09-15T19:29:58.971Z,68.57
2018-09-15T19:33:03.427Z,68.86
2018-09-15T19:36:08.039Z,68.40
2018-09-15T19:39:14.115Z,68.25
2018-09-15T19:42:18.639Z,68.52
2018-09-15T19:45:23.135Z,69.38
2018-09-15T19:48:27.749Z,69.74
2018-09-15T19:51:32.181Z,69.95
2018-09-15T19:54:36.653Z,69.92
2018-09-15T19:57:41.162Z,70.06
2018-09-15T20:00:45.670Z,70.12
2018-09-15T20:03:50.096Z,69.12
2018-09-15T20:06:54.598Z,69.60
2018-09-15T20:09:59.143Z,69.94
2018-09-15T20:13:03.675Z,71.14
2018-09-15T20:16:06.436Z,71.70
2018-09-15T20:19:09.243Z,71.97
2018-09-15T20:22:13.865Z,71.79
2018-09-15T20:25:18.363Z,72.05
2018-09-15T20:28:22.995Z,72.73
2018-09-15T20:31:27.515Z,72.34
2018-09-15T20:34:32.011Z,72.07
2018-09-15T20:37:36.895Z,72.25
2018-09-15T20:40:41.407Z,71.75
2018-09-15T20:43:45.901Z,72.45
2018-09-15T20:46:50.470Z,73.04
2018-09-15T20:49:54.961Z,73.19
2018-09-15T20:52:59.498Z,73.05
2018-09-15T20:56:04.016Z,73.64
2018-09-15T20:59:08.581Z,72.84
2018-09-15T21:02:13.381Z,73.38
2018-09-15T21:05:17.911Z,74.06
2018-09-15T21:08:22.399Z,74.75
2018-09-15T21:11:26.973Z,74.59
2018-09-15T21:14:31.455Z,75.58
2018-09-15T21:17:35.987Z,75.76
2018-09-15T21:20:40.473Z,75.63
2018-09-15T21:23:45.138Z,75.37
2018-09-15T21:26:49.665Z,74.85
2018-09-15T21:29:54.148Z,75.24
2018-09-15T21:32:58.664Z,75.66
2018-09-15T21:36:03.271Z,75.81
2018-09-15T21:39:11.516Z,75.83
2018-09-15T21:42:16.020Z,76.79
2018-09-15T21:45:20.518Z,76.33
2018-09-15T21:48:25.128Z,77.12
2018-09-15T21:51:29.704Z,76.47
2018-09-15T21:54:34.207Z,76.71
2018-09-15T21:57:38.642Z,76.83
2018-09-15T22:00:43.195Z,77.00
2018-09-15T22:03:53.065Z,76.99
2018-09-15T22:06:57.532Z,77.99
2018-09-15T22:10:02.039Z,78.64
2018-09-15T22:13:06.555Z,78.25
2018-09-15T22:16:11.007Z,78.63
2018-09-15T22:19:15.474Z,78.80
2018-09-15T22:22:20.466Z,78.66
2018-09-15T22:25:24.885Z,79.88
2018-09-15T22:28:29.317Z,79.32
2018-09-15T22:31:33.726Z,79.55
2018-09-15T22:34:38.208Z,79.82
2018-09-15T22:37:42.868Z,79.86
2018-09-15T22:40:47.298Z,80.41
2018-09-15T22:43:51.914Z,79.49
2018-09-15T22:46:56.365Z,79.87
2018-09-15T22:50:00.781Z,79.64
2018-09-15T22:53:05.250Z,80.45
2018-09-15T22:56:09.674Z,81.04
2018-09-15T22:59:14.121Z,81.07
2018-09-15T23:02:18.743Z,80.96
2018-09-15T23:05:23.228Z,80.92
2018-09-15T23:08:27.716Z,80.55
2018-09-15T23:11:32.158Z,80.15
2018-09-15T23:14:36.654Z,80.61
2018-09-15T23:17:41.139Z,81.13
2018-09-15T23:20:45.771Z,81.98
2018-09-15T23:23:50.263Z,81.96
2018-09-15T23:26:54.838Z,81.69
2018-09-15T23:29:59.334Z,81.99
2018-09-15T23:33:04.329Z,82.16
2018-09-15T23:36:09.241Z,82.13
2018-09-15T23:39:13.758Z,81.47
2018-09-15T23:42:18.268Z,82.05
2018-09-15T23:45:22.706Z,82.62
2018-09-15T23:48:27.196Z,82.76
2018-09-15T23:51:31.613Z,83.25
2018-09-15T23:54:36.054Z,83.97
2018-09-15T23:57:40.597Z,83.68
